Time;durP1;ratioP1;P1;durP2;ratioP2;P2;SDS_P1;SDS_P2;PMS_P1;PMS_P2;Temp;Humidity;BMP_temperature;BMP_pressure;BME280_temperature;BME280_humidity;BME280_pressure;Samples;Min_cycle;Max_cycle;Signal;HPM_P1;HPM_P2
2023/09/12 03:01:32;;;;;;;;;;;18.50;99.90;;;;;;5598721;22;19956;-76
2023/09/12 03:03:57;;;;;;;;;;;18.50;99.90;;;;;;5059727;28;19960;-75
2023/09/12 03:06:23;;;;;;;;;;;18.50;99.90;;;;;;5059670;28;19931;-75
2023/09/12 03:08:49;;;;;;;;;;;18.40;99.90;;;;;;5077586;28;19952;-75
2023/09/12 03:11:15;;;;;;;;;;;18.50;99.90;;;;;;5059249;28;19978;-76
2023/09/12 03:13:41;;;;;;;;;;;18.50;99.90;;;;;;5059210;28;19960;-76
2023/09/12 03:16:10;;;;;;;;;;;18.50;99.90;;;;;;5059553;28;20389;-76
2023/09/12 03:18:35;;;;;;;;;;;18.40;99.90;;;;;;5059155;28;19920;-75
2023/09/12 03:21:01;;;;;;;;;;;18.40;99.90;;;;;;5076998;28;19920;-75
2023/09/12 03:23:27;;;;;;;;;;;18.40;99.90;;;;;;5077190;28;19920;-76
2023/09/12 03:25:52;;;;;;;;;;;18.40;99.90;;;;;;5059339;28;20398;-75
2023/09/12 03:28:18;;;;;;;;;;;18.40;99.90;;;;;;5058948;28;20413;-76
2023/09/12 03:30:43;;;;;;;;;;;18.40;99.90;;;;;;5058836;28;19925;-75
2023/09/12 03:33:09;;;;;;;;;;;18.40;99.90;;;;;;5058788;28;19927;-76
2023/09/12 03:35:35;;;;;;;;;;;18.40;99.90;;;;;;5059201;28;19921;-77
2023/09/12 03:38:00;;;;;;;;;;;18.30;99.90;;;;;;5058765;28;19927;-76
2023/09/12 03:40:28;;;;;;;;;;;18.40;99.90;;;;;;5059497;28;20350;-76
2023/09/12 03:42:53;;;;;;;;;;;18.40;99.90;;;;;;5076603;28;19932;-76
2023/09/12 03:45:19;;;;;;;;;;;18.30;99.90;;;;;;5059249;28;19921;-76
2023/09/12 03:47:46;;;;;;;;;;;18.30;99.90;;;;;;5058878;28;19934;-76
2023/09/12 03:50:12;;;;;;;;;;;18.30;99.90;;;;;;5076461;28;20363;-77
2023/09/12 03:52:38;;;;;;;;;;;18.30;99.90;;;;;;5058539;28;19973;-76
2023/09/12 03:55:04;;;;;;;;;;;18.20;99.90;;;;;;5058378;28;19932;-76
2023/09/12 03:57:29;;;;;;;;;;;18.20;99.90;;;;;;5058419;28;19921;-76
2023/09/12 03:59:55;;;;;;;;;;;18.20;99.90;;;;;;5058395;28;19924;-76
2023/09/12 04:02:20;;;;;;;;;;;18.20;99.90;;;;;;5058145;28;19978;-76
2023/09/12 04:04:46;;;;;;;;;;;18.20;99.90;;;;;;5058150;28;19997;-76
2023/09/12 04:07:11;;;;;;;;;;;18.20;99.90;;;;;;5076137;28;19943;-75
2023/09/12 04:09:37;;;;;;;;;;;18.20;99.90;;;;;;5058170;28;20409;-76
2023/09/12 04:12:03;;;;;;;;;;;18.20;99.90;;;;;;5075989;28;19928;-76
2023/09/12 04:14:28;;;;;;;;;;;18.10;99.90;;;;;;5058065;28;19925;-74
2023/09/12 04:16:54;;;;;;;;;;;18.10;99.90;;;;;;5058046;28;20414;-75
2023/09/12 04:19:19;;;;;;;;;;;18.00;99.90;;;;;;5057991;28;20295;-75
2023/09/12 04:21:45;;;;;;;;;;;18.00;99.90;;;;;;5057887;28;19986;-76
2023/09/12 04:24:10;;;;;;;;;;;17.90;99.90;;;;;;5057906;28;19975;-76
2023/09/12 04:26:36;;;;;;;;;;;17.90;99.90;;;;;;5057938;28;19921;-78
2023/09/12 04:29:02;;;;;;;;;;;17.90;99.90;;;;;;5057805;28;20268;-78
2023/09/12 04:31:27;;;;;;;;;;;17.90;99.90;;;;;;5057675;28;19920;-78
2023/09/12 04:33:53;;;;;;;;;;;17.90;99.90;;;;;;5075871;28;20269;-78
2023/09/12 04:36:19;;;;;;;;;;;17.90;99.90;;;;;;5058033;28;20281;-77
2023/09/12 04:38:45;;;;;;;;;;;17.90;99.90;;;;;;5058023;28;19942;-77
2023/09/12 04:41:14;;;;;;;;;;;17.90;99.90;;;;;;5057887;28;20346;-76
2023/09/12 04:43:39;;;;;;;;;;;17.90;99.90;;;;;;5075539;28;19982;-75
2023/09/12 04:46:05;;;;;;;;;;;17.90;99.90;;;;;;5057493;28;20383;-78
2023/09/12 04:48:31;;;;;;;;;;;17.90;99.90;;;;;;5057457;28;20006;-77
2023/09/12 04:50:56;;;;;;;;;;;17.90;99.90;;;;;;5057575;28;19928;-77
2023/09/12 04:53:22;;;;;;;;;;;17.90;99.90;;;;;;5057490;28;20322;-76
2023/09/12 04:55:48;;;;;;;;;;;17.90;99.90;;;;;;5057344;28;19920;-77
2023/09/12 04:58:13;;;;;;;;;;;17.90;99.90;;;;;;5057320;28;19957;-77
2023/09/12 05:00:39;;;;;;;;;;;17.90;99.90;;;;;;5074938;28;20423;-77
2023/09/12 05:03:05;;;;;;;;;;;17.90;99.90;;;;;;5057268;28;19921;-77
2023/09/12 05:05:33;;;;;;;;;;;17.90;99.90;;;;;;5057198;28;19921;-79
2023/09/12 05:07:59;;;;;;;;;;;17.80;99.90;;;;;;5057042;28;20378;-78
2023/09/12 05:10:24;;;;;;;;;;;17.80;99.90;;;;;;5075478;28;19920;-78
2023/09/12 05:12:50;;;;;;;;;;;17.80;99.90;;;;;;5056940;28;19932;-77
2023/09/12 05:15:15;;;;;;;;;;;17.80;99.90;;;;;;5056901;28;19924;-76
2023/09/12 05:17:41;;;;;;;;;;;17.80;99.90;;;;;;5074544;28;19927;-79
2023/09/12 05:20:07;;;;;;;;;;;17.80;99.90;;;;;;5074763;28;19992;-79
2023/09/12 05:22:32;;;;;;;;;;;17.80;99.90;;;;;;5056354;28;20015;-77
2023/09/12 05:24:58;;;;;;;;;;;17.80;99.90;;;;;;5056601;28;19971;-76
2023/09/12 05:27:23;;;;;;;;;;;17.70;99.90;;;;;;5056328;28;19926;-78
2023/09/12 05:29:49;;;;;;;;;;;17.80;99.90;;;;;;5056489;28;19924;-77
2023/09/12 05:32:16;;;;;;;;;;;17.80;99.90;;;;;;5056440;28;20054;-78
2023/09/12 05:34:42;;;;;;;;;;;17.80;99.90;;;;;;5056381;28;19950;-79
2023/09/12 05:37:07;;;;;;;;;;;17.80;99.90;;;;;;5074269;28;19921;-77
2023/09/12 05:39:33;;;;;;;;;;;17.80;99.90;;;;;;5056422;28;19974;-78
2023/09/12 05:41:58;;;;;;;;;;;17.80;99.90;;;;;;5056580;28;19920;-77
2023/09/12 05:44:24;;;;;;;;;;;17.80;99.90;;;;;;5056478;28;20282;-78
2023/09/12 05:46:49;;;;;;;;;;;17.80;99.90;;;;;;5056129;28;19927;-78
2023/09/12 05:49:15;;;;;;;;;;;17.80;99.90;;;;;;5056407;28;19999;-77
2023/09/12 05:51:41;;;;;;;;;;;17.80;99.90;;;;;;5073894;28;19921;-77
2023/09/12 05:54:09;;;;;;;;;;;17.80;99.90;;;;;;5055699;28;20395;-77
2023/09/12 05:56:35;;;;;;;;;;;17.80;99.90;;;;;;5056039;28;19964;-78
2023/09/12 05:59:00;;;;;;;;;;;17.80;99.90;;;;;;5055996;28;19975;-78
2023/09/12 06:01:26;;;;;;;;;;;17.80;99.90;;;;;;5055894;28;19971;-78
2023/09/12 06:03:51;;;;;;;;;;;17.90;99.90;;;;;;5055924;28;19935;-77
2023/09/12 06:06:17;;;;;;;;;;;17.90;99.90;;;;;;5055875;28;19921;-77
2023/09/12 06:08:43;;;;;;;;;;;17.90;99.90;;;;;;5073835;28;19995;-76
2023/09/12 06:11:08;;;;;;;;;;;17.90;99.90;;;;;;5073843;28;19920;-77
2023/09/12 06:13:37;;;;;;;;;;;17.90;99.90;;;;;;5056004;28;19975;-77
2023/09/12 06:16:03;;;;;;;;;;;18.00;99.90;;;;;;5056005;28;20010;-77
2023/09/12 06:18:30;;;;;;;;;;;18.00;99.90;;;;;;5055764;28;19963;-77
2023/09/12 06:20:57;;;;;;;;;;;18.00;99.90;;;;;;5055657;28;19925;-78
2023/09/12 06:23:23;;;;;;;;;;;18.00;99.90;;;;;;5055540;28;19921;-78
2023/09/12 06:25:49;;;;;;;;;;;18.00;99.90;;;;;;5056073;28;20332;-77
2023/09/12 06:28:24;;;;;;;;;;;18.00;99.90;;;;;;5055670;28;19967;-76
2023/09/12 06:30:49;;;;;;;;;;;18.10;99.90;;;;;;5055533;28;20061;-77
2023/09/12 06:33:15;;;;;;;;;;;18.10;99.90;;;;;;5055783;28;20019;-79
2023/09/12 06:35:40;;;;;;;;;;;18.10;99.90;;;;;;5073604;28;20310;-77
2023/09/12 06:38:06;;;;;;;;;;;18.10;99.90;;;;;;5055562;28;19920;-79
2023/09/12 06:40:31;;;;;;;;;;;18.10;99.90;;;;;;5047155;28;20017;-78
2023/09/12 06:42:57;;;;;;;;;;;18.10;99.90;;;;;;5046176;28;19993;-77
2023/09/12 06:45:22;;;;;;;;;;;18.20;99.90;;;;;;5040663;28;20030;-76
2023/09/12 06:47:48;;;;;;;;;;;18.10;99.90;;;;;;5035522;28;19936;-77
2023/09/12 06:50:13;;;;;;;;;;;18.20;99.90;;;;;;5035397;28;19929;-76
2023/09/12 06:52:39;;;;;;;;;;;18.20;99.90;;;;;;5053378;28;19925;-77
2023/09/12 06:55:05;;;;;;;;;;;18.20;99.90;;;;;;5035479;28;20015;-75
2023/09/12 06:57:30;;;;;;;;;;;18.30;99.90;;;;;;5035608;28;19921;-75
2023/09/12 06:59:56;;;;;;;;;;;18.30;99.90;;;;;;5019069;28;19927;-77
2023/09/12 07:02:21;;;;;;;;;;;18.30;99.90;;;;;;5035303;28;19921;-76
2023/09/12 07:04:47;;;;;;;;;;;18.30;99.90;;;;;;5035553;28;19974;-76
2023/09/12 07:07:12;;;;;;;;;;;18.40;99.90;;;;;;5053254;28;19921;-76
2023/09/12 07:09:38;;;;;;;;;;;18.40;99.90;;;;;;5053449;28;19920;-76
2023/09/12 07:12:05;;;;;;;;;;;18.40;99.90;;;;;;5036751;28;19924;-76
2023/09/12 07:14:31;;;;;;;;;;;18.40;99.90;;;;;;5035278;28;19925;-76
2023/09/12 07:16:56;;;;;;;;;;;18.40;99.90;;;;;;5035406;28;20046;-77
2023/09/12 07:19:24;;;;;;;;;;;18.40;99.90;;;;;;5035324;28;20351;-76
2023/09/12 07:21:49;;;;;;;;;;;18.30;99.90;;;;;;5035201;28;20011;-76
2023/09/12 07:24:15;;;;;;;;;;;18.30;99.90;;;;;;5035282;28;20013;-76
2023/09/12 07:26:40;;;;;;;;;;;18.30;99.90;;;;;;5035215;28;20015;-76
2023/09/12 07:29:06;;;;;;;;;;;18.30;99.90;;;;;;5035170;28;20362;-76
2023/09/12 07:31:31;;;;;;;;;;;18.30;99.90;;;;;;5052961;28;19920;-76
2023/09/12 07:33:57;;;;;;;;;;;18.30;99.90;;;;;;5035104;28;19932;-77
2023/09/12 07:36:22;;;;;;;;;;;18.30;99.90;;;;;;5035107;28;19921;-77
2023/09/12 07:38:48;;;;;;;;;;;18.40;99.90;;;;;;5018675;28;19921;-78
2023/09/12 07:41:13;;;;;;;;;;;18.40;99.90;;;;;;5038370;28;20402;-78
2023/09/12 07:43:40;;;;;;;;;;;18.40;99.90;;;;;;5038934;28;19974;-77
2023/09/12 07:46:05;;;;;;;;;;;18.50;99.90;;;;;;5038589;28;19921;-78
2023/09/12 07:48:32;;;;;;;;;;;18.50;99.90;;;;;;5038414;28;19921;-78
2023/09/12 07:50:57;;;;;;;;;;;18.60;99.90;;;;;;5038426;28;19921;-77
2023/09/12 07:53:23;;;;;;;;;;;18.60;99.90;;;;;;5038622;28;19925;-77
2023/09/12 07:55:49;;;;;;;;;;;18.60;99.90;;;;;;5038491;28;19920;-78
2023/09/12 07:58:18;;;;;;;;;;;18.70;99.90;;;;;;5038358;28;19925;-78
2023/09/12 08:00:44;;;;;;;;;;;18.70;99.90;;;;;;5038245;28;19927;-78
2023/09/12 08:03:09;;;;;;;;;;;18.70;99.90;;;;;;5038662;28;19924;-77
2023/09/12 08:05:35;;;;;;;;;;;18.70;99.90;;;;;;5056103;28;19921;-77
2023/09/12 08:08:01;;;;;;;;;;;18.80;99.90;;;;;;5038411;28;19920;-77
2023/09/12 08:10:27;;;;;;;;;;;18.80;99.90;;;;;;5038082;28;20398;-77
2023/09/12 08:12:52;;;;;;;;;;;18.80;99.90;;;;;;5056313;28;19921;-77
2023/09/12 08:15:19;;;;;;;;;;;18.90;99.90;;;;;;5037949;28;19932;-77
2023/09/12 08:17:45;;;;;;;;;;;19.00;99.90;;;;;;5038018;28;20016;-78
2023/09/12 08:20:10;;;;;;;;;;;19.00;99.90;;;;;;5038275;28;19964;-77
2023/09/12 08:22:37;;;;;;;;;;;19.00;99.90;;;;;;5037884;28;19982;-77
2023/09/12 08:25:02;;;;;;;;;;;19.10;99.90;;;;;;5055776;28;19921;-77
2023/09/12 08:27:28;;;;;;;;;;;19.10;99.90;;;;;;5038124;28;19928;-77
2023/09/12 08:29:54;;;;;;;;;;;19.20;99.90;;;;;;5038751;28;19931;-78
2023/09/12 08:32:20;;;;;;;;;;;19.20;99.90;;;;;;5055770;28;20292;-78
2023/09/12 08:34:45;;;;;;;;;;;19.20;99.90;;;;;;5021728;28;19964;-78
2023/09/12 08:37:11;;;;;;;;;;;19.30;99.90;;;;;;5037734;28;19920;-78
2023/09/12 08:39:45;;;;;;;;;;;19.40;99.90;;;;;;5037747;28;19964;-78
2023/09/12 08:42:12;;;;;;;;;;;19.50;99.90;;;;;;5055759;28;20328;-78
2023/09/12 08:44:39;;;;;;;;;;;19.60;99.90;;;;;;5055669;28;19967;-78
2023/09/12 08:47:05;;;;;;;;;;;19.80;99.90;;;;;;5037539;28;19924;-78
2023/09/12 08:49:33;;;;;;;;;;;19.90;99.90;;;;;;5055363;28;19984;-78
2023/09/12 08:51:58;;;;;;;;;;;19.90;99.90;;;;;;5037162;28;19943;-79
2023/09/12 08:54:24;;;;;;;;;;;19.90;99.90;;;;;;5037475;28;20380;-79
2023/09/12 08:56:50;;;;;;;;;;;20.00;99.90;;;;;;5055041;28;20375;-79
2023/09/12 08:59:16;;;;;;;;;;;20.10;99.90;;;;;;5037224;28;19920;-77
2023/09/12 09:01:42;;;;;;;;;;;20.20;99.90;;;;;;5037025;28;19920;-78
2023/09/12 09:04:08;;;;;;;;;;;20.20;99.90;;;;;;5055556;28;19971;-78
2023/09/12 09:06:37;;;;;;;;;;;20.30;99.90;;;;;;5055257;28;19921;-77
2023/09/12 09:09:05;;;;;;;;;;;20.30;99.90;;;;;;5054942;28;20277;-78
2023/09/12 09:11:30;;;;;;;;;;;20.40;99.90;;;;;;5054757;28;19928;-77
2023/09/12 09:13:56;;;;;;;;;;;20.40;99.90;;;;;;5037009;28;19928;-77
2023/09/12 09:16:22;;;;;;;;;;;20.40;99.90;;;;;;5055020;28;20287;-77
2023/09/12 09:18:55;;;;;;;;;;;20.40;99.90;;;;;;5054992;28;20023;-77
2023/09/12 09:21:24;;;;;;;;;;;20.30;99.90;;;;;;5036740;28;19931;-79
2023/09/12 09:23:50;;;;;;;;;;;20.30;99.90;;;;;;5055099;28;19920;-77
2023/09/12 09:26:16;;;;;;;;;;;20.40;99.90;;;;;;5037061;28;20011;-77
2023/09/12 09:28:41;;;;;;;;;;;20.40;99.90;;;;;;5054778;28;20012;-77
2023/09/12 09:31:11;;;;;;;;;;;20.40;99.90;;;;;;5055303;28;19921;-79
2023/09/12 09:33:38;;;;;;;;;;;20.40;99.90;;;;;;5054372;28;20375;-78
2023/09/12 09:36:05;;;;;;;;;;;20.50;99.90;;;;;;5055289;28;19921;-78
2023/09/12 09:38:30;;;;;;;;;;;20.60;99.90;;;;;;5054673;28;19970;-79
2023/09/12 09:40:56;;;;;;;;;;;20.70;99.90;;;;;;5054583;28;19921;-80
2023/09/12 09:43:22;;;;;;;;;;;20.70;99.90;;;;;;5019895;28;19924;-78
2023/09/12 09:45:48;;;;;;;;;;;20.70;99.90;;;;;;5036943;28;19927;-78
2023/09/12 09:48:20;;;;;;;;;;;20.80;99.90;;;;;;5054212;28;20338;-79
2023/09/12 09:50:46;;;;;;;;;;;20.80;99.90;;;;;;5054590;28;19921;-79
2023/09/12 09:53:12;;;;;;;;;;;20.70;99.90;;;;;;5054024;28;19992;-79
2023/09/12 09:55:37;;;;;;;;;;;20.80;99.90;;;;;;5036686;28;19921;-78
2023/09/12 09:58:06;;;;;;;;;;;20.80;99.90;;;;;;5054170;28;19932;-79
2023/09/12 10:00:33;;;;;;;;;;;20.90;99.90;;;;;;5054417;28;19921;-80
2023/09/12 10:02:59;;;;;;;;;;;21.00;99.90;;;;;;5036116;28;19924;-78
2023/09/12 10:05:26;;;;;;;;;;;21.10;99.90;;;;;;5037099;28;19934;-78
2023/09/12 10:07:52;;;;;;;;;;;21.20;99.90;;;;;;5036319;28;20012;-79
2023/09/12 10:10:19;;;;;;;;;;;21.30;99.90;;;;;;5036374;28;20333;-79
2023/09/12 10:12:56;;;;;;;;;;;21.30;99.90;;;;;;5036345;28;20028;-78
2023/09/12 10:15:22;;;;;;;;;;;21.30;99.90;;;;;;5053986;28;19925;-78
2023/09/12 10:17:55;;;;;;;;;;;21.40;99.90;;;;;;5035794;28;20324;-78
2023/09/12 10:20:24;;;;;;;;;;;21.40;99.90;;;;;;5035867;28;19925;-79
2023/09/12 10:23:00;;;;;;;;;;;21.40;99.90;;;;;;5035831;28;19920;-78
2023/09/12 10:25:28;;;;;;;;;;;21.60;99.90;;;;;;5053987;28;20379;-78
2023/09/12 10:27:54;;;;;;;;;;;21.70;99.90;;;;;;5036578;28;19920;-78
2023/09/12 10:30:20;;;;;;;;;;;21.80;99.90;;;;;;5035742;28;19928;-78
2023/09/12 10:32:46;;;;;;;;;;;22.00;99.90;;;;;;5037105;28;20256;-79
2023/09/12 10:35:12;;;;;;;;;;;22.20;99.90;;;;;;5035514;28;19932;-78
2023/09/12 10:37:41;;;;;;;;;;;22.40;99.90;;;;;;5019288;28;19927;-79
2023/09/12 10:40:08;;;;;;;;;;;22.40;99.90;;;;;;5019620;28;19920;-79
2023/09/12 10:42:34;;;;;;;;;;;22.40;99.90;;;;;;5035492;28;19975;-78
2023/09/12 10:45:00;;;;;;;;;;;22.30;99.90;;;;;;5035604;28;20015;-78
2023/09/12 10:47:26;;;;;;;;;;;22.30;99.90;;;;;;5038181;28;19920;-80
2023/09/12 10:49:52;;;;;;;;;;;22.30;99.90;;;;;;5052785;28;19920;-79
2023/09/12 10:52:27;;;;;;;;;;;22.20;99.90;;;;;;5056020;28;19920;-79
2023/09/12 10:54:53;;;;;;;;;;;22.20;99.90;;;;;;5073541;28;20406;-79
2023/09/12 10:57:19;;;;;;;;;;;22.20;99.90;;;;;;5056324;28;19921;-80
2023/09/12 10:59:59;;;;;;;;;;;22.20;99.90;;;;;;5038886;28;19930;-80
2023/09/12 11:02:29;;;;;;;;;;;22.10;99.90;;;;;;5073252;28;19921;-80
2023/09/12 11:04:55;;;;;;;;;;;22.10;99.90;;;;;;5055699;28;19925;-79
2023/09/12 11:07:30;;;;;;;;;;;22.00;99.90;;;;;;5055348;28;20299;-78
2023/09/12 11:10:20;;;;;;;;;;;22.00;99.90;;;;;;5055886;28;20003;-78
2023/09/12 11:12:46;;;;;;;;;;;21.90;99.90;;;;;;5055714;28;19920;-79
2023/09/12 11:15:15;;;;;;;;;;;21.90;99.90;;;;;;5057187;28;19947;-79
2023/09/12 11:17:41;;;;;;;;;;;21.90;99.90;;;;;;5059268;28;20057;-79
2023/09/12 11:20:10;;;;;;;;;;;22.00;99.90;;;;;;5076955;28;19920;-79
2023/09/12 11:22:39;;;;;;;;;;;22.00;99.90;;;;;;5077129;28;19920;-79
2023/09/12 11:25:25;;;;;;;;;;;22.10;99.90;;;;;;5059309;28;19957;-79
2023/09/12 11:27:50;;;;;;;;;;;22.40;99.90;;;;;;5078060;28;20272;-79
2023/09/12 11:30:20;;;;;;;;;;;22.70;99.90;;;;;;5058817;28;19920;-78
2023/09/12 11:32:46;;;;;;;;;;;22.90;99.90;;;;;;5059266;28;20345;-79
2023/09/12 11:35:13;;;;;;;;;;;23.00;99.90;;;;;;5077459;28;19931;-79
2023/09/12 11:37:38;;;;;;;;;;;23.00;99.90;;;;;;5057913;28;19975;-79
2023/09/12 11:40:13;;;;;;;;;;;22.80;99.90;;;;;;5075382;28;20364;-79
2023/09/12 11:42:42;;;;;;;;;;;22.60;99.90;;;;;;5040842;28;19964;-78
2023/09/12 11:45:09;;;;;;;;;;;22.50;99.90;;;;;;5075465;28;19921;-78
2023/09/12 11:47:39;;;;;;;;;;;22.50;99.90;;;;;;5057429;28;19925;-79
2023/09/12 11:50:05;;;;;;;;;;;22.40;99.90;;;;;;5075405;28;19978;-80
2023/09/12 11:52:30;;;;;;;;;;;22.40;99.90;;;;;;5057845;28;19920;-79
2023/09/12 11:54:56;;;;;;;;;;;22.40;99.90;;;;;;5058346;28;19924;-79
2023/09/12 11:57:22;;;;;;;;;;;22.40;99.90;;;;;;5058461;28;19920;-79
2023/09/12 11:59:48;;;;;;;;;;;22.30;99.90;;;;;;5058701;28;19935;-80
2023/09/12 12:02:14;;;;;;;;;;;22.40;99.90;;;;;;5041904;28;20145;-79
2023/09/12 12:04:40;;;;;;;;;;;22.30;99.90;;;;;;5058184;28;20307;-79
2023/09/12 12:07:06;;;;;;;;;;;22.30;99.90;;;;;;5058527;28;19920;-80
2023/09/12 12:09:33;;;;;;;;;;;22.30;99.90;;;;;;5058189;28;19920;-80
2023/09/12 12:12:14;;;;;;;;;;;22.40;99.90;;;;;;5076269;28;20276;-79
2023/09/12 12:14:40;;;;;;;;;;;22.50;99.90;;;;;;5041416;28;19925;-78
2023/09/12 12:17:08;;;;;;;;;;;22.80;99.90;;;;;;5058671;28;20410;-76
2023/09/12 12:19:34;;;;;;;;;;;23.00;99.90;;;;;;5057963;28;19920;-77
2023/09/12 12:21:59;;;;;;;;;;;23.20;99.90;;;;;;5075827;28;19943;-79
2023/09/12 12:24:25;;;;;;;;;;;23.30;99.90;;;;;;5058105;28;20415;-78
2023/09/12 12:26:51;;;;;;;;;;;23.20;99.90;;;;;;5057049;28;20425;-78
2023/09/12 12:29:16;;;;;;;;;;;23.20;99.90;;;;;;5058901;28;19920;-78
2023/09/12 12:31:42;;;;;;;;;;;23.10;99.90;;;;;;5041596;28;20237;-77
2023/09/12 12:34:07;;;;;;;;;;;22.90;99.90;;;;;;5057553;28;19994;-80
2023/09/12 12:36:40;;;;;;;;;;;22.80;99.90;;;;;;5058267;28;19968;-80
2023/09/12 12:39:09;;;;;;;;;;;22.80;99.90;;;;;;5075948;28;19920;-79
2023/09/12 12:41:35;;;;;;;;;;;22.80;99.90;;;;;;5057682;28;20379;-78
2023/09/12 12:44:01;;;;;;;;;;;22.90;99.90;;;;;;5058552;28;20045;-79
2023/09/12 12:46:28;;;;;;;;;;;23.00;99.90;;;;;;5057731;28;19934;-79
2023/09/12 12:48:55;;;;;;;;;;;22.90;99.90;;;;;;5057604;28;20384;-79
2023/09/12 12:51:22;;;;;;;;;;;23.10;99.90;;;;;;5076264;28;19925;-79
2023/09/12 12:53:54;;;;;;;;;;;23.20;99.90;;;;;;5057248;28;20439;-79
2023/09/12 12:56:26;;;;;;;;;;;23.30;99.90;;;;;;5075100;28;19924;-78
2023/09/12 12:58:53;;;;;;;;;;;23.40;99.90;;;;;;5075398;28;19936;-79
2023/09/12 13:01:19;;;;;;;;;;;23.30;99.90;;;;;;5059225;28;19976;-78
2023/09/12 13:03:45;;;;;;;;;;;23.20;99.90;;;;;;5055314;28;19976;-78
2023/09/12 13:06:14;;;;;;;;;;;23.10;99.90;;;;;;5055271;28;19928;-77
2023/09/12 13:08:46;;;;;;;;;;;23.10;99.90;;;;;;5037442;28;19986;-77
2023/09/12 13:11:12;;;;;;;;;;;23.20;99.90;;;;;;5055077;28;19927;-78
2023/09/12 13:13:38;;;;;;;;;;;23.30;99.90;;;;;;5055370;28;19924;-78
2023/09/12 13:16:09;;;;;;;;;;;23.40;99.90;;;;;;5037323;28;20266;-78
2023/09/12 13:18:35;;;;;;;;;;;23.40;99.90;;;;;;5037102;28;19924;-76
2023/09/12 13:21:01;;;;;;;;;;;23.40;99.90;;;;;;5020568;28;19920;-76
2023/09/12 13:23:27;;;;;;;;;;;23.20;99.90;;;;;;5054672;28;20348;-77
2023/09/12 13:25:52;;;;;;;;;;;23.10;99.90;;;;;;5054533;28;19977;-77
2023/09/12 13:28:18;;;;;;;;;;;23.10;99.90;;;;;;5037062;28;19920;-78
2023/09/12 13:30:44;;;;;;;;;;;23.20;99.90;;;;;;5036600;28;20043;-77
2023/09/12 13:33:15;;;;;;;;;;;23.30;99.90;;;;;;5020251;28;19968;-78
2023/09/12 13:35:41;;;;;;;;;;;23.40;99.90;;;;;;5036592;28;19932;-78
2023/09/12 13:38:09;;;;;;;;;;;23.50;99.90;;;;;;5036262;28;19921;-77
2023/09/12 13:40:41;;;;;;;;;;;23.50;99.90;;;;;;5036405;28;19933;-77
2023/09/12 13:43:07;;;;;;;;;;;23.50;99.90;;;;;;5054697;28;20016;-77
2023/09/12 13:45:33;;;;;;;;;;;23.50;99.90;;;;;;5054251;28;20083;-78
2023/09/12 13:47:59;;;;;;;;;;;23.50;99.90;;;;;;5054279;28;19921;-78
2023/09/12 13:50:25;;;;;;;;;;;23.50;99.90;;;;;;5036115;28;19932;-79
2023/09/12 13:52:51;;;;;;;;;;;23.50;99.90;;;;;;5035676;28;19920;-78
2023/09/12 13:55:16;;;;;;;;;;;23.50;99.90;;;;;;5037243;28;20364;-78
2023/09/12 13:57:42;;;;;;;;;;;23.50;99.90;;;;;;5056477;28;20279;-78
2023/09/12 14:00:08;;;;;;;;;;;23.60;99.90;;;;;;5056427;28;19920;-78
2023/09/12 14:02:34;;;;;;;;;;;23.70;99.90;;;;;;5056288;28;20011;-78
2023/09/12 14:05:00;;;;;;;;;;;23.70;99.90;;;;;;5056109;28;20362;-78
2023/09/12 14:07:26;;;;;;;;;;;23.70;99.90;;;;;;5073994;28;19968;-79
2023/09/12 14:09:54;;;;;;;;;;;23.70;99.90;;;;;;5074258;28;19921;-78
2023/09/12 14:12:20;;;;;;;;;;;23.70;99.90;;;;;;5039636;28;20359;-78
2023/09/12 14:14:46;;;;;;;;;;;23.70;99.90;;;;;;5055957;28;19924;-79
2023/09/12 14:17:11;;;;;;;;;;;23.90;99.90;;;;;;5055907;28;19920;-79
2023/09/12 14:19:37;;;;;;;;;;;24.00;99.90;;;;;;5089464;28;19927;-77
2023/09/12 14:22:03;;;;;;;;;;;24.20;99.90;;;;;;5073989;28;19920;-77
2023/09/12 14:24:28;;;;;;;;;;;24.20;99.90;;;;;;5055846;28;19924;-77
2023/09/12 14:26:54;;;;;;;;;;;24.10;99.90;;;;;;5055772;28;19974;-77
2023/09/12 14:29:19;;;;;;;;;;;24.00;99.90;;;;;;5056063;28;19929;-77
2023/09/12 14:31:50;;;;;;;;;;;24.10;99.90;;;;;;5039090;28;19921;-78
2023/09/12 14:34:18;;;;;;;;;;;24.00;99.90;;;;;;5073601;28;19968;-78
2023/09/12 14:36:45;;;;;;;;;;;24.00;99.90;;;;;;5055699;28;19968;-76
2023/09/12 14:39:11;;;;;;;;;;;23.90;99.90;;;;;;5073608;28;19920;-76
2023/09/12 14:41:37;;;;;;;;;;;23.80;99.90;;;;;;5055543;28;19921;-76
2023/09/12 14:44:02;;;;;;;;;;;23.80;99.90;;;;;;5055558;28;19946;-77
2023/09/12 14:46:28;;;;;;;;;;;23.80;99.90;;;;;;5055572;28;19999;-75
2023/09/12 14:48:53;;;;;;;;;;;23.90;99.90;;;;;;5055817;28;19925;-75
2023/09/12 14:51:19;;;;;;;;;;;23.90;99.90;;;;;;5077455;28;20375;-76
2023/09/12 14:53:46;;;;;;;;;;;23.80;99.90;;;;;;5059807;28;20391;-76
2023/09/12 14:56:11;;;;;;;;;;;23.70;99.90;;;;;;5059654;28;19969;-77
2023/09/12 14:58:37;;;;;;;;;;;23.70;99.90;;;;;;5077485;28;20003;-77
2023/09/12 15:01:03;;;;;;;;;;;23.70;99.90;;;;;;5077212;28;20460;-77
2023/09/12 15:03:29;;;;;;;;;;;23.60;99.90;;;;;;5042916;28;19921;-76
2023/09/12 15:05:55;;;;;;;;;;;23.50;99.90;;;;;;5059710;28;19932;-76
2023/09/12 15:08:20;;;;;;;;;;;23.40;99.90;;;;;;5059328;28;20294;-77
2023/09/12 15:10:46;;;;;;;;;;;23.40;99.90;;;;;;5059260;28;19920;-76
2023/09/12 15:13:13;;;;;;;;;;;23.60;99.90;;;;;;5058948;28;19936;-77
2023/09/12 15:15:39;;;;;;;;;;;23.80;99.90;;;;;;5059125;28;19926;-77
2023/09/12 15:18:04;;;;;;;;;;;23.90;99.90;;;;;;5059126;28;20390;-77
2023/09/12 15:20:30;;;;;;;;;;;24.00;99.90;;;;;;5059087;28;19928;-77
2023/09/12 15:22:55;;;;;;;;;;;24.00;99.90;;;;;;5076999;28;19975;-76
2023/09/12 15:25:21;;;;;;;;;;;24.10;99.90;;;;;;5058809;28;19999;-77
2023/09/12 15:27:47;;;;;;;;;;;24.00;99.90;;;;;;5058882;28;19921;-77
2023/09/12 15:30:12;;;;;;;;;;;23.90;99.90;;;;;;5059098;28;19974;-77
2023/09/12 15:32:38;;;;;;;;;;;23.80;99.90;;;;;;5058931;28;20391;-77
2023/09/12 15:35:04;;;;;;;;;;;23.80;99.90;;;;;;5058867;28;19928;-78
2023/09/12 15:37:29;;;;;;;;;;;23.80;99.90;;;;;;5077237;28;20283;-77
2023/09/12 15:39:55;;;;;;;;;;;23.90;99.90;;;;;;5077029;28;20061;-77
2023/09/12 15:42:20;;;;;;;;;;;24.00;99.90;;;;;;5076468;28;20019;-77
2023/09/12 15:44:46;;;;;;;;;;;24.10;99.90;;;;;;5042340;28;19921;-77
2023/09/12 15:47:12;;;;;;;;;;;24.10;99.90;;;;;;5058966;28;20268;-77
2023/09/12 15:49:37;;;;;;;;;;;24.00;99.90;;;;;;5058905;28;19928;-76
2023/09/12 15:52:03;;;;;;;;;;;23.80;99.90;;;;;;5042197;28;20394;-77
2023/09/12 15:54:30;;;;;;;;;;;23.70;99.90;;;;;;5058486;28;20379;-77
2023/09/12 15:56:55;;;;;;;;;;;23.50;99.90;;;;;;5041745;28;19921;-77
2023/09/12 15:59:21;;;;;;;;;;;23.20;99.90;;;;;;5076957;28;19920;-77
2023/09/12 16:01:47;;;;;;;;;;;23.10;99.90;;;;;;5075907;28;19927;-77
2023/09/12 16:04:12;;;;;;;;;;;23.00;99.90;;;;;;5058288;28;19920;-76
2023/09/12 16:06:38;;;;;;;;;;;22.90;99.90;;;;;;5058761;28;19943;-77
2023/09/12 16:09:05;;;;;;;;;;;22.80;99.90;;;;;;5058262;28;19927;-76
2023/09/12 16:11:31;;;;;;;;;;;22.70;99.90;;;;;;5058273;28;19921;-77
2023/09/12 16:13:57;;;;;;;;;;;22.60;99.90;;;;;;5076894;28;20266;-76
2023/09/12 16:16:22;;;;;;;;;;;22.50;99.90;;;;;;5058185;28;20040;-77
2023/09/12 16:18:48;;;;;;;;;;;22.50;99.90;;;;;;5057972;28;20009;-79
2023/09/12 16:21:14;;;;;;;;;;;22.40;99.90;;;;;;5057837;28;19921;-79
2023/09/12 16:23:39;;;;;;;;;;;22.40;99.90;;;;;;5058173;28;19928;-77
2023/09/12 16:26:05;;;;;;;;;;;22.30;99.90;;;;;;5057825;28;20371;-77
2023/09/12 16:28:30;;;;;;;;;;;22.30;99.90;;;;;;5058205;28;19927;-77
2023/09/12 16:30:56;;;;;;;;;;;22.20;99.90;;;;;;5058058;28;19920;-77
2023/09/12 16:33:22;;;;;;;;;;;22.20;99.90;;;;;;5057589;28;20455;-77
2023/09/12 16:35:48;;;;;;;;;;;22.20;99.90;;;;;;5057723;28;19927;-77
2023/09/12 16:38:14;;;;;;;;;;;22.10;99.90;;;;;;5057665;28;19931;-76
2023/09/12 16:40:40;;;;;;;;;;;22.10;99.90;;;;;;5057604;28;19920;-76
2023/09/12 16:43:06;;;;;;;;;;;22.10;99.90;;;;;;5057606;28;19920;-76
2023/09/12 16:45:32;;;;;;;;;;;22.10;99.90;;;;;;5057531;28;19920;-77
2023/09/12 16:47:57;;;;;;;;;;;22.00;99.90;;;;;;5057561;28;19920;-77
2023/09/12 16:50:24;;;;;;;;;;;22.00;99.90;;;;;;5057330;28;19920;-76
2023/09/12 16:52:50;;;;;;;;;;;22.00;99.90;;;;;;5075265;28;19970;-77
2023/09/12 16:55:16;;;;;;;;;;;21.90;99.90;;;;;;5057280;28;20015;-77
2023/09/12 16:57:41;;;;;;;;;;;21.80;99.90;;;;;;5040714;28;19927;-77
2023/09/12 17:00:08;;;;;;;;;;;21.80;99.90;;;;;;5057223;28;19921;-77
2023/09/12 17:02:35;;;;;;;;;;;21.80;99.90;;;;;;5057104;28;19920;-77
2023/09/12 17:05:04;;;;;;;;;;;21.70;99.90;;;;;;5057121;28;19970;-76
2023/09/12 17:07:30;;;;;;;;;;;21.70;99.90;;;;;;5057412;28;20356;-76
2023/09/12 17:09:57;;;;;;;;;;;21.70;99.90;;;;;;5057058;28;19921;-77
2023/09/12 17:12:23;;;;;;;;;;;21.70;99.90;;;;;;5056303;28;19970;-76